KCAK

Akron-Canton Regional Airport

Akron, Ohio, USA
METAR KCAK 182051Z 04014KT 10SM FEW040 29/15 A2992 RMK AO2 SLP121 T02890150 56008 $
Observed Flight Rules
Aug-18 @ 20:51 UTC (an hour ago) Visual Flight Rules
Wind Visibility Clouds
40° at 14 knots 10 miles
  • Few at 4,000' AGL
Temperatures Readings
Current 29°C / 84°F
Dewpoint 15°C / 59°F
Humidity 43%
Altimeter 29.92" Hg
Pressure 1012.1 hPa
Elevation 377
METAR KCAK 182051Z 04014KT 10SM FEW040 29/15 A2992 RMK AO2 SLP121 T02890150 56008 $
Observed Flight Rules
Aug-18 @ 20:51 UTC
(an hour ago)
VFR
Wind Visibility
40° at 14 knots 10 miles
Clouds
  • Few at 4,000' AGL
Temperature Dewpoint
29°C / 84°F 15°C / 59°F
Humidity Altimeter Pressure
43% 29.92" Hg 1012.1 hPa